sensor_id;sensor_type;location;lat;lon;timestamp;pressure;altitude;pressure_sealevel;temperature;humidity
70343;BME280;57767;42.068;24.752;2022-10-31T00:00:02;99157.66;;;18.14;42.12
70343;BME280;57767;42.068;24.752;2022-10-31T00:01:15;99154.19;;;18.14;41.98
70343;BME280;57767;42.068;24.752;2022-10-31T00:02:17;99153.38;;;18.13;41.79
70343;BME280;57767;42.068;24.752;2022-10-31T00:03:19;99150.22;;;18.16;41.81
70343;BME280;57767;42.068;24.752;2022-10-31T00:04:21;99146.41;;;18.12;41.89
70343;BME280;57767;42.068;24.752;2022-10-31T00:05:23;99148.84;;;18.14;42.15
70343;BME280;57767;42.068;24.752;2022-10-31T00:06:25;99146.94;;;18.09;41.92
70343;BME280;57767;42.068;24.752;2022-10-31T00:07:26;99153.88;;;18.10;41.85
70343;BME280;57767;42.068;24.752;2022-10-31T00:08:28;99151.22;;;18.10;42.05
70343;BME280;57767;42.068;24.752;2022-10-31T00:09:30;99153.34;;;18.08;41.99
70343;BME280;57767;42.068;24.752;2022-10-31T00:10:31;99152.28;;;18.09;42.13
70343;BME280;57767;42.068;24.752;2022-10-31T00:11:33;99150.03;;;18.01;42.23
70343;BME280;57767;42.068;24.752;2022-10-31T00:12:35;99144.50;;;18.08;41.86
70343;BME280;57767;42.068;24.752;2022-10-31T00:13:37;99149.84;;;18.08;42.08
70343;BME280;57767;42.068;24.752;2022-10-31T00:14:38;99149.84;;;18.08;42.01
70343;BME280;57767;42.068;24.752;2022-10-31T00:15:40;99152.28;;;18.09;41.90
70343;BME280;57767;42.068;24.752;2022-10-31T00:16:42;99146.94;;;18.09;41.81
70343;BME280;57767;42.068;24.752;2022-10-31T00:17:44;99147.47;;;18.11;41.80
70343;BME280;57767;42.068;24.752;2022-10-31T00:18:54;99146.16;;;18.14;41.88
70343;BME280;57767;42.068;24.752;2022-10-31T00:19:56;99142.41;;;18.10;41.80
70343;BME280;57767;42.068;24.752;2022-10-31T00:21:02;99150.94;;;18.12;41.75
70343;BME280;57767;42.068;24.752;2022-10-31T00:22:04;99142.94;;;18.12;41.69
70343;BME280;57767;42.068;24.752;2022-10-31T00:23:07;99146.41;;;18.12;41.82
70343;BME280;57767;42.068;24.752;2022-10-31T00:24:10;99147.78;;;18.15;41.71
70343;BME280;57767;42.068;24.752;2022-10-31T00:25:12;99145.09;;;18.15;41.79
70343;BME280;57767;42.068;24.752;2022-10-31T00:26:14;99151.25;;;18.15;41.82
70343;BME280;57767;42.068;24.752;2022-10-31T00:27:16;99146.41;;;18.12;41.94
70343;BME280;57767;42.068;24.752;2022-10-31T00:28:17;99144.31;;;18.14;41.90
70343;BME280;57767;42.068;24.752;2022-10-31T00:29:24;99145.91;;;18.15;41.48
70343;BME280;57767;42.068;24.752;2022-10-31T00:30:26;99140.00;;;18.13;41.57
70343;BME280;57767;42.068;24.752;2022-10-31T00:31:27;99140.88;;;18.19;41.64
70343;BME280;57767;42.068;24.752;2022-10-31T00:32:29;99139.53;;;18.16;41.79
70343;BME280;57767;42.068;24.752;2022-10-31T00:33:34;99144.06;;;18.16;41.39
70343;BME280;57767;42.068;24.752;2022-10-31T00:34:36;99146.56;;;18.22;41.35
70343;BME280;57767;42.068;24.752;2022-10-31T00:35:38;99150.84;;;18.23;41.41
70343;BME280;57767;42.068;24.752;2022-10-31T00:36:39;99146.03;;;18.25;41.49
70343;BME280;57767;42.068;24.752;2022-10-31T00:37:41;99146.59;;;18.27;41.18
70343;BME280;57767;42.068;24.752;2022-10-31T00:38:43;99146.84;;;18.26;41.33
70343;BME280;57767;42.068;24.752;2022-10-31T00:39:45;99150.31;;;18.26;41.51
70343;BME280;57767;42.068;24.752;2022-10-31T00:40:50;99151.69;;;18.29;41.43
70343;BME280;57767;42.068;24.752;2022-10-31T00:41:51;99148.44;;;18.27;41.51
70343;BME280;57767;42.068;24.752;2022-10-31T00:42:53;99154.91;;;18.31;41.16
70343;BME280;57767;42.068;24.752;2022-10-31T00:43:55;99152.56;;;18.35;41.44
70343;BME280;57767;42.068;24.752;2022-10-31T00:44:57;99153.63;;;18.34;41.40
70343;BME280;57767;42.068;24.752;2022-10-31T00:45:58;99153.88;;;18.32;41.28
70343;BME280;57767;42.068;24.752;2022-10-31T00:47:00;99149.88;;;18.35;41.12
70343;BME280;57767;42.068;24.752;2022-10-31T00:48:02;99151.50;;;18.36;41.39
70343;BME280;57767;42.068;24.752;2022-10-31T00:49:03;99154.47;;;18.39;41.33
70343;BME280;57767;42.068;24.752;2022-10-31T00:50:06;99158.75;;;18.40;41.23
70343;BME280;57767;42.068;24.752;2022-10-31T00:51:08;99161.19;;;18.42;41.25
70343;BME280;57767;42.068;24.752;2022-10-31T00:52:10;99160.13;;;18.43;41.25
70343;BME280;57767;42.068;24.752;2022-10-31T00:53:12;99160.94;;;18.43;41.06
70343;BME280;57767;42.068;24.752;2022-10-31T00:54:14;99156.97;;;18.46;41.14
70343;BME280;57767;42.068;24.752;2022-10-31T00:55:15;99152.41;;;18.46;41.20
70343;BME280;57767;42.068;24.752;2022-10-31T00:56:17;99155.66;;;18.48;41.22
70343;BME280;57767;42.068;24.752;2022-10-31T00:57:19;99161.53;;;18.50;41.13
70343;BME280;57767;42.068;24.752;2022-10-31T00:58:20;99151.13;;;18.49;41.08
70343;BME280;57767;42.068;24.752;2022-10-31T00:59:22;99153.78;;;18.49;40.90
70343;BME280;57767;42.068;24.752;2022-10-31T01:00:24;99153.50;;;18.50;41.10
70343;BME280;57767;42.068;24.752;2022-10-31T01:01:31;99155.94;;;18.52;41.03
70343;BME280;57767;42.068;24.752;2022-10-31T01:02:33;99152.75;;;18.55;40.78
70343;BME280;57767;42.068;24.752;2022-10-31T01:03:35;99142.63;;;18.57;40.93
70343;BME280;57767;42.068;24.752;2022-10-31T01:04:36;99145.09;;;18.58;40.66
70343;BME280;57767;42.068;24.752;2022-10-31T01:05:38;99142.97;;;18.60;40.70
70343;BME280;57767;42.068;24.752;2022-10-31T01:06:40;99142.44;;;18.64;40.63
70343;BME280;57767;42.068;24.752;2022-10-31T01:07:42;99144.88;;;18.65;41.15
70343;BME280;57767;42.068;24.752;2022-10-31T01:08:44;99143.56;;;18.68;40.50
70343;BME280;57767;42.068;24.752;2022-10-31T01:09:48;99145.97;;;18.69;40.37
70343;BME280;57767;42.068;24.752;2022-10-31T01:11:08;99148.16;;;18.72;40.70
70343;BME280;57767;42.068;24.752;2022-10-31T01:12:11;99147.63;;;18.75;40.44
70343;BME280;57767;42.068;24.752;2022-10-31T01:13:13;99142.28;;;18.75;40.47
70343;BME280;57767;42.068;24.752;2022-10-31T01:14:15;99146.06;;;18.79;40.46
70343;BME280;57767;42.068;24.752;2022-10-31T01:15:19;99150.66;;;18.84;40.29
70343;BME280;57767;42.068;24.752;2022-10-31T01:16:24;99147.50;;;18.87;40.15
70343;BME280;57767;42.068;24.752;2022-10-31T01:17:26;99145.34;;;18.89;40.04
70343;BME280;57767;42.068;24.752;2022-10-31T01:18:28;99149.13;;;18.93;39.83
70343;BME280;57767;42.068;24.752;2022-10-31T01:19:30;99149.44;;;18.96;39.83
70343;BME280;57767;42.068;24.752;2022-10-31T01:20:32;99141.91;;;18.93;39.60
70343;BME280;57767;42.068;24.752;2022-10-31T01:21:33;99133.38;;;18.96;39.65
70343;BME280;57767;42.068;24.752;2022-10-31T01:22:35;99129.13;;;19.01;39.59
70343;BME280;57767;42.068;24.752;2022-10-31T01:23:37;99136.66;;;19.04;39.60
70343;BME280;57767;42.068;24.752;2022-10-31T01:24:38;99131.84;;;19.06;40.09
70343;BME280;57767;42.068;24.752;2022-10-31T01:25:40;99131.28;;;19.04;39.62
70343;BME280;57767;42.068;24.752;2022-10-31T01:26:43;99128.06;;;19.02;39.54
70343;BME280;57767;42.068;24.752;2022-10-31T01:27:45;99110.06;;;18.92;39.76
70343;BME280;57767;42.068;24.752;2022-10-31T01:28:52;99130.78;;;19.07;39.35
70343;BME280;57767;42.068;24.752;2022-10-31T01:29:54;99130.53;;;19.08;39.26
70343;BME280;57767;42.068;24.752;2022-10-31T01:31:01;99124.69;;;19.16;38.92
70343;BME280;57767;42.068;24.752;2022-10-31T01:32:03;99122.31;;;19.20;39.11
70343;BME280;57767;42.068;24.752;2022-10-31T01:33:05;99123.38;;;19.19;39.26
70343;BME280;57767;42.068;24.752;2022-10-31T01:34:06;99120.69;;;19.19;38.76
70343;BME280;57767;42.068;24.752;2022-10-31T01:35:08;99125.31;;;19.28;38.96
70343;BME280;57767;42.068;24.752;2022-10-31T01:36:15;99122.38;;;19.30;38.79
70343;BME280;57767;42.068;24.752;2022-10-31T01:37:17;99128.00;;;19.28;38.85
70343;BME280;57767;42.068;24.752;2022-10-31T01:38:19;99120.00;;;19.33;38.81
70343;BME280;57767;42.068;24.752;2022-10-31T01:39:21;99122.69;;;19.39;38.90
70343;BME280;57767;42.068;24.752;2022-10-31T01:40:22;99121.88;;;19.38;38.63
70343;BME280;57767;42.068;24.752;2022-10-31T01:41:28;99121.38;;;19.41;38.47
70343;BME280;57767;42.068;24.752;2022-10-31T01:42:31;99113.09;;;19.43;38.56
70343;BME280;57767;42.068;24.752;2022-10-31T01:45:16;99120.34;;;19.47;38.52
70343;BME280;57767;42.068;24.752;2022-10-31T01:46:32;99127.28;;;19.43;38.50
70343;BME280;57767;42.068;24.752;2022-10-31T01:47:43;99128.34;;;19.42;38.71
70343;BME280;57767;42.068;24.752;2022-10-31T01:48:46;99132.59;;;19.38;38.43
70343;BME280;57767;42.068;24.752;2022-10-31T01:49:51;99124.59;;;19.43;38.53
70343;BME280;57767;42.068;24.752;2022-10-31T01:50:55;99128.91;;;19.44;38.54
70343;BME280;57767;42.068;24.752;2022-10-31T01:52:02;99120.31;;;19.42;38.47
70343;BME280;57767;42.068;24.752;2022-10-31T01:53:07;99127.84;;;19.45;38.33
70343;BME280;57767;42.068;24.752;2022-10-31T01:54:13;99122.75;;;19.44;38.17
70343;BME280;57767;42.068;24.752;2022-10-31T01:56:18;99119.00;;;19.45;38.52
70343;BME280;57767;42.068;24.752;2022-10-31T01:57:21;99121.97;;;19.48;38.29
70343;BME280;57767;42.068;24.752;2022-10-31T01:58:25;99119.81;;;19.45;38.31
70343;BME280;57767;42.068;24.752;2022-10-31T01:59:30;99131.06;;;19.47;38.22
70343;BME280;57767;42.068;24.752;2022-10-31T02:00:33;99120.94;;;19.49;38.75
70343;BME280;57767;42.068;24.752;2022-10-31T02:01:36;99117.94;;;19.46;38.44
70343;BME280;57767;42.068;24.752;2022-10-31T02:02:39;99129.19;;;19.48;38.32
70343;BME280;57767;42.068;24.752;2022-10-31T02:03:41;99125.22;;;19.50;38.01
70343;BME280;57767;42.068;24.752;2022-10-31T02:04:44;99128.44;;;19.52;38.41
70343;BME280;57767;42.068;24.752;2022-10-31T02:05:48;99127.09;;;19.50;38.14
70343;BME280;57767;42.068;24.752;2022-10-31T02:06:57;99130.59;;;19.50;38.28
70343;BME280;57767;42.068;24.752;2022-10-31T02:08:12;99138.09;;;19.53;38.39
70343;BME280;57767;42.068;24.752;2022-10-31T02:09:16;99135.41;;;19.53;38.08
70343;BME280;57767;42.068;24.752;2022-10-31T02:10:21;99131.13;;;19.52;38.43
70343;BME280;57767;42.068;24.752;2022-10-31T02:11:24;99108.53;;;19.43;37.95
70343;BME280;57767;42.068;24.752;2022-10-31T02:12:25;99139.19;;;19.57;38.00
70343;BME280;57767;42.068;24.752;2022-10-31T02:13:30;99142.69;;;19.58;38.22
70343;BME280;57767;42.068;24.752;2022-10-31T02:14:33;99140.00;;;19.58;38.09
70343;BME280;57767;42.068;24.752;2022-10-31T02:15:36;99131.66;;;19.49;38.05
70343;BME280;57767;42.068;24.752;2022-10-31T02:16:38;99131.66;;;19.54;38.19
70343;BME280;57767;42.068;24.752;2022-10-31T02:17:40;99120.13;;;19.49;38.02
70343;BME280;57767;42.068;24.752;2022-10-31T02:18:42;99133.78;;;19.52;37.95
70343;BME280;57767;42.068;24.752;2022-10-31T02:20:00;99130.84;;;19.49;38.12
70343;BME280;57767;42.068;24.752;2022-10-31T02:33:32;99111.59;;;19.57;37.74
70343;BME280;57767;42.068;24.752;2022-10-31T02:34:40;99110.50;;;19.53;38.02
70343;BME280;57767;42.068;24.752;2022-10-31T02:37:09;99109.22;;;19.60;37.80
70343;BME280;57767;42.068;24.752;2022-10-31T02:38:38;99106.53;;;19.60;37.67
70343;BME280;57767;42.068;24.752;2022-10-31T02:42:46;99123.69;;;19.64;37.77
70343;BME280;57767;42.068;24.752;2022-10-31T02:44:36;99125.28;;;19.65;37.64
70343;BME280;57767;42.068;24.752;2022-10-31T02:45:50;99117.25;;;19.65;37.78
70343;BME280;57767;42.068;24.752;2022-10-31T02:47:14;99124.75;;;19.63;37.93
70343;BME280;57767;42.068;24.752;2022-10-31T02:48:26;99116.16;;;19.56;38.02
70343;BME280;57767;42.068;24.752;2022-10-31T02:49:53;99126.66;;;19.63;37.75
70343;BME280;57767;42.068;24.752;2022-10-31T02:51:02;99127.97;;;19.65;37.89
70343;BME280;57767;42.068;24.752;2022-10-31T02:52:21;99125.03;;;19.67;37.69
70343;BME280;57767;42.068;24.752;2022-10-31T02:53:25;99137.09;;;19.70;37.88
70343;BME280;57767;42.068;24.752;2022-10-31T02:54:27;99129.06;;;19.70;37.93
70343;BME280;57767;42.068;24.752;2022-10-31T02:56:31;99145.19;;;19.75;37.92
70343;BME280;57767;42.068;24.752;2022-10-31T02:57:34;99130.19;;;19.74;37.56
70343;BME280;57767;42.068;24.752;2022-10-31T02:58:43;99133.41;;;19.76;37.68
70343;BME280;57767;42.068;24.752;2022-10-31T02:59:52;99136.03;;;19.71;37.83
70343;BME280;57767;42.068;24.752;2022-10-31T03:11:32;99149.53;;;19.86;37.72
70343;BME280;57767;42.068;24.752;2022-10-31T03:12:49;99147.63;;;19.81;37.74
70343;BME280;57767;42.068;24.752;2022-10-31T03:14:10;99147.91;;;19.85;37.53
70343;BME280;57767;42.068;24.752;2022-10-31T03:15:18;99155.94;;;19.85;37.48
70343;BME280;57767;42.068;24.752;2022-10-31T03:16:29;99158.91;;;19.88;37.39
70343;BME280;57767;42.068;24.752;2022-10-31T03:17:37;99159.19;;;19.87;37.58
70343;BME280;57767;42.068;24.752;2022-10-31T03:18:50;99151.66;;;19.89;37.39
70343;BME280;57767;42.068;24.752;2022-10-31T03:19:56;99136.34;;;19.79;37.77
70343;BME280;57767;42.068;24.752;2022-10-31T03:21:14;99150.34;;;19.86;37.72
70343;BME280;57767;42.068;24.752;2022-10-31T03:22:22;99143.63;;;19.89;37.43
70343;BME280;57767;42.068;24.752;2022-10-31T03:23:25;99161.31;;;19.90;37.39
70343;BME280;57767;42.068;24.752;2022-10-31T03:24:31;99158.94;;;19.93;37.41
70343;BME280;57767;42.068;24.752;2022-10-31T03:25:36;99153.31;;;19.95;37.36
70343;BME280;57767;42.068;24.752;2022-10-31T03:26:42;99150.09;;;19.93;37.46
70343;BME280;57767;42.068;24.752;2022-10-31T03:27:48;99158.97;;;19.98;37.38
70343;BME280;57767;42.068;24.752;2022-10-31T03:28:57;99165.94;;;19.99;37.50
70343;BME280;57767;42.068;24.752;2022-10-31T03:30:03;99158.97;;;19.98;37.79
70343;BME280;57767;42.068;24.752;2022-10-31T03:31:07;99164.31;;;19.98;37.51
70343;BME280;57767;42.068;24.752;2022-10-31T03:32:25;99164.31;;;19.98;37.70
70343;BME280;57767;42.068;24.752;2022-10-31T03:33:32;99168.63;;;19.99;37.48
70343;BME280;57767;42.068;24.752;2022-10-31T03:34:37;99163.25;;;19.99;37.60
70343;BME280;57767;42.068;24.752;2022-10-31T03:35:42;99167.81;;;19.99;37.67
70343;BME280;57767;42.068;24.752;2022-10-31T03:36:50;99173.72;;;20.01;37.36
70343;BME280;57767;42.068;24.752;2022-10-31T03:37:54;99169.69;;;19.98;37.33
70343;BME280;57767;42.068;24.752;2022-10-31T03:38:57;99179.09;;;20.01;37.79
70343;BME280;57767;42.068;24.752;2022-10-31T03:40:02;99179.09;;;20.01;37.49
70343;BME280;57767;42.068;24.752;2022-10-31T03:41:10;99175.31;;;20.02;37.77
70343;BME280;57767;42.068;24.752;2022-10-31T03:42:24;99177.97;;;19.97;37.52
70343;BME280;57767;42.068;24.752;2022-10-31T03:43:30;99188.69;;;19.97;37.68
70343;BME280;57767;42.068;24.752;2022-10-31T03:44:34;99189.78;;;19.96;37.75
70343;BME280;57767;42.068;24.752;2022-10-31T03:45:41;99188.66;;;19.92;37.89
70343;BME280;57767;42.068;24.752;2022-10-31T03:46:45;99188.41;;;19.93;37.74
70343;BME280;57767;42.068;24.752;2022-10-31T03:47:47;99186.78;;;19.92;37.59
70343;BME280;57767;42.068;24.752;2022-10-31T03:48:49;99182.25;;;19.93;37.77
70343;BME280;57767;42.068;24.752;2022-10-31T03:49:51;99183.81;;;19.89;37.63
70343;BME280;57767;42.068;24.752;2022-10-31T03:52:21;99187.59;;;19.93;37.79
70343;BME280;57767;42.068;24.752;2022-10-31T03:54:58;99176.28;;;19.76;37.94
70343;BME280;57767;42.068;24.752;2022-10-31T03:56:11;99190.78;;;19.85;38.05
70343;BME280;57767;42.068;24.752;2022-10-31T03:57:27;99186.44;;;19.79;38.01
70343;BME280;57767;42.068;24.752;2022-10-31T03:58:42;99182.72;;;19.80;37.89
70343;BME280;57767;42.068;24.752;2022-10-31T04:00:03;99191.28;;;19.82;38.02
70343;BME280;57767;42.068;24.752;2022-10-31T04:01:11;99193.97;;;19.82;38.03
70343;BME280;57767;42.068;24.752;2022-10-31T04:02:22;99189.13;;;19.79;38.30
70343;BME280;57767;42.068;24.752;2022-10-31T04:03:32;99189.63;;;19.71;38.40
70343;BME280;57767;42.068;24.752;2022-10-31T04:04:36;99184.81;;;19.73;38.24
70343;BME280;57767;42.068;24.752;2022-10-31T04:05:38;99196.91;;;19.75;38.36
70343;BME280;57767;42.068;24.752;2022-10-31T04:06:42;99197.72;;;19.76;38.32
70343;BME280;57767;42.068;24.752;2022-10-31T04:07:47;99196.06;;;19.70;38.77
70343;BME280;57767;42.068;24.752;2022-10-31T04:08:54;99198.22;;;19.73;38.53
70343;BME280;57767;42.068;24.752;2022-10-31T04:09:58;99201.97;;;19.72;38.76
70343;BME280;57767;42.068;24.752;2022-10-31T04:11:03;99183.09;;;19.56;38.67
70343;BME280;57767;42.068;24.752;2022-10-31T04:12:08;99205.41;;;19.67;38.74
70343;BME280;57767;42.068;24.752;2022-10-31T04:13:14;99200.03;;;19.67;38.48
70343;BME280;57767;42.068;24.752;2022-10-31T04:14:21;99202.47;;;19.68;38.58
70343;BME280;57767;42.068;24.752;2022-10-31T04:15:26;99205.97;;;19.69;38.28
70343;BME280;57767;42.068;24.752;2022-10-31T04:16:28;99212.38;;;19.68;38.43
70343;BME280;57767;42.068;24.752;2022-10-31T04:17:33;99209.94;;;19.66;38.51
70343;BME280;57767;42.068;24.752;2022-10-31T04:18:36;99214.22;;;19.62;38.81
70343;BME280;57767;42.068;24.752;2022-10-31T04:19:38;99214.22;;;19.62;38.76
70343;BME280;57767;42.068;24.752;2022-10-31T04:20:41;99215.81;;;19.63;38.74
70343;BME280;57767;42.068;24.752;2022-10-31T04:21:42;99216.09;;;19.62;38.84
70343;BME280;57767;42.068;24.752;2022-10-31T04:22:47;99219.84;;;19.61;38.77
70343;BME280;57767;42.068;24.752;2022-10-31T04:23:49;99217.13;;;19.56;38.76
70343;BME280;57767;42.068;24.752;2022-10-31T04:24:50;99210.66;;;19.52;38.85
70343;BME280;57767;42.068;24.752;2022-10-31T04:25:52;99214.13;;;19.52;38.84
70343;BME280;57767;42.068;24.752;2022-10-31T04:26:54;99228.09;;;19.54;38.96
70343;BME280;57767;42.068;24.752;2022-10-31T04:27:56;99229.16;;;19.53;39.00
70343;BME280;57767;42.068;24.752;2022-10-31T04:28:58;99229.41;;;19.52;39.15
70343;BME280;57767;42.068;24.752;2022-10-31T04:30:00;99231.28;;;19.51;39.05
70343;BME280;57767;42.068;24.752;2022-10-31T04:31:01;99219.22;;;19.49;38.95
70343;BME280;57767;42.068;24.752;2022-10-31T04:32:03;99225.88;;;19.46;38.95
70343;BME280;57767;42.068;24.752;2022-10-31T04:33:05;99224.75;;;19.42;39.17
70343;BME280;57767;42.068;24.752;2022-10-31T04:34:07;99225.81;;;19.41;39.26
70343;BME280;57767;42.068;24.752;2022-10-31T04:35:08;99226.38;;;19.43;39.10
70343;BME280;57767;42.068;24.752;2022-10-31T04:36:10;99225.56;;;19.43;39.28
70343;BME280;57767;42.068;24.752;2022-10-31T04:37:12;99226.13;;;19.45;39.24
70343;BME280;57767;42.068;24.752;2022-10-31T04:38:14;99227.69;;;19.41;39.24
70343;BME280;57767;42.068;24.752;2022-10-31T04:39:16;99230.63;;;19.39;39.53
70343;BME280;57767;42.068;24.752;2022-10-31T04:40:22;99231.16;;;19.36;39.59
70343;BME280;57767;42.068;24.752;2022-10-31T04:41:24;99231.66;;;19.33;39.36
70343;BME280;57767;42.068;24.752;2022-10-31T04:42:29;99234.56;;;19.31;39.56
70343;BME280;57767;42.068;24.752;2022-10-31T04:43:31;99232.16;;;19.30;39.79
70343;BME280;57767;42.068;24.752;2022-10-31T04:44:32;99235.88;;;19.29;39.54
70343;BME280;57767;42.068;24.752;2022-10-31T04:45:34;99228.66;;;19.24;39.35
70343;BME280;57767;42.068;24.752;2022-10-31T04:46:36;99232.66;;;19.27;39.59
70343;BME280;57767;42.068;24.752;2022-10-31T04:47:37;99236.41;;;19.26;39.71
70343;BME280;57767;42.068;24.752;2022-10-31T04:48:39;99234.50;;;19.21;39.93
70343;BME280;57767;42.068;24.752;2022-10-31T04:49:41;99239.53;;;19.18;39.97
70343;BME280;57767;42.068;24.752;2022-10-31T04:50:42;99243.78;;;19.14;40.04
70343;BME280;57767;42.068;24.752;2022-10-31T04:51:44;99242.16;;;19.13;39.98
70343;BME280;57767;42.068;24.752;2022-10-31T04:52:46;99249.13;;;19.14;40.17
70343;BME280;57767;42.068;24.752;2022-10-31T04:53:48;99235.72;;;19.09;40.26
70343;BME280;57767;42.068;24.752;2022-10-31T04:54:49;99252.34;;;19.11;40.35
70343;BME280;57767;42.068;24.752;2022-10-31T04:55:51;99245.13;;;19.11;39.93
70343;BME280;57767;42.068;24.752;2022-10-31T04:56:53;99246.44;;;19.09;40.09
70343;BME280;57767;42.068;24.752;2022-10-31T04:57:55;99244.31;;;19.11;39.98
70343;BME280;57767;42.068;24.752;2022-10-31T04:58:56;99243.94;;;19.02;40.78
70343;BME280;57767;42.068;24.752;2022-10-31T04:59:58;99246.38;;;19.04;40.41
70343;BME280;57767;42.068;24.752;2022-10-31T05:01:00;99249.84;;;19.04;40.64
70343;BME280;57767;42.068;24.752;2022-10-31T05:02:01;99248.00;;;19.05;40.49
70343;BME280;57767;42.068;24.752;2022-10-31T05:03:03;99238.31;;;18.99;40.67
70343;BME280;57767;42.068;24.752;2022-10-31T05:04:05;99253.34;;;19.05;40.72
70343;BME280;57767;42.068;24.752;2022-10-31T05:05:07;99263.78;;;19.06;40.57
70343;BME280;57767;42.068;24.752;2022-10-31T05:06:09;99260.88;;;19.08;40.94
70343;BME280;57767;42.068;24.752;2022-10-31T05:07:10;99265.41;;;19.07;41.02
70343;BME280;57767;42.068;24.752;2022-10-31T05:08:12;99267.53;;;19.05;41.06
70343;BME280;57767;42.068;24.752;2022-10-31T05:09:14;99271.88;;;19.11;40.80
70343;BME280;57767;42.068;24.752;2022-10-31T05:10:21;99277.53;;;19.15;40.63
70343;BME280;57767;42.068;24.752;2022-10-31T05:11:23;99268.94;;;19.13;40.58
70343;BME280;57767;42.068;24.752;2022-10-31T05:12:25;99273.22;;;19.14;40.71
70343;BME280;57767;42.068;24.752;2022-10-31T05:13:27;99279.13;;;19.16;40.90
70343;BME280;57767;42.068;24.752;2022-10-31T05:14:29;99276.78;;;19.19;40.58
70343;BME280;57767;42.068;24.752;2022-10-31T05:15:31;99267.44;;;19.22;40.53
70343;BME280;57767;42.068;24.752;2022-10-31T05:16:33;99278.94;;;19.22;40.85
70343;BME280;57767;42.068;24.752;2022-10-31T05:17:34;99283.00;;;19.25;40.61
70343;BME280;57767;42.068;24.752;2022-10-31T05:18:36;99273.88;;;19.26;40.37
70343;BME280;57767;42.068;24.752;2022-10-31T05:19:38;99284.09;;;19.29;40.48
70343;BME280;57767;42.068;24.752;2022-10-31T05:20:39;99276.59;;;19.31;40.84
70343;BME280;57767;42.068;24.752;2022-10-31T05:21:41;99277.41;;;19.31;40.36
70343;BME280;57767;42.068;24.752;2022-10-31T05:22:47;99276.59;;;19.31;40.18
70343;BME280;57767;42.068;24.752;2022-10-31T05:23:49;99287.06;;;19.32;40.33
70343;BME280;57767;42.068;24.752;2022-10-31T05:24:51;99275.56;;;19.32;40.62
70343;BME280;57767;42.068;24.752;2022-10-31T05:25:53;99274.50;;;19.33;40.52
70343;BME280;57767;42.068;24.752;2022-10-31T05:26:55;99285.75;;;19.35;40.66
70343;BME280;57767;42.068;24.752;2022-10-31T05:27:56;99287.38;;;19.36;40.47
70343;BME280;57767;42.068;24.752;2022-10-31T05:28:59;99285.50;;;19.37;40.54
70343;BME280;57767;42.068;24.752;2022-10-31T05:30:00;99276.66;;;19.36;40.32
70343;BME280;57767;42.068;24.752;2022-10-31T05:31:02;99280.41;;;19.35;40.91
70343;BME280;57767;42.068;24.752;2022-10-31T05:32:04;99289.00;;;19.37;40.44
70343;BME280;57767;42.068;24.752;2022-10-31T05:33:06;99278.81;;;19.39;40.48
70343;BME280;57767;42.068;24.752;2022-10-31T05:34:07;99281.47;;;19.34;40.54
70343;BME280;57767;42.068;24.752;2022-10-31T05:35:12;99286.34;;;19.42;40.52
70343;BME280;57767;42.068;24.752;2022-10-31T05:36:14;99289.53;;;19.39;40.43
70343;BME280;57767;42.068;24.752;2022-10-31T05:37:15;99288.44;;;19.35;41.63
70343;BME280;57767;42.068;24.752;2022-10-31T05:38:17;99293.81;;;19.40;41.03
70343;BME280;57767;42.068;24.752;2022-10-31T05:39:19;99289.53;;;19.39;41.12
70343;BME280;57767;42.068;24.752;2022-10-31T05:40:21;99291.69;;;19.42;41.62
70343;BME280;57767;42.068;24.752;2022-10-31T05:41:23;99294.88;;;19.39;41.98
70343;BME280;57767;42.068;24.752;2022-10-31T05:42:25;99284.69;;;19.36;41.15
70343;BME280;57767;42.068;24.752;2022-10-31T05:43:27;99282.84;;;19.42;41.63
70343;BME280;57767;42.068;24.752;2022-10-31T05:44:28;99286.09;;;19.44;40.78
70343;BME280;57767;42.068;24.752;2022-10-31T05:45:30;99273.22;;;19.41;40.93
70343;BME280;57767;42.068;24.752;2022-10-31T05:46:32;99287.22;;;19.48;41.35
70343;BME280;57767;42.068;24.752;2022-10-31T05:47:34;99287.22;;;19.48;40.75
70343;BME280;57767;42.068;24.752;2022-10-31T05:48:36;99292.88;;;19.51;40.59
70343;BME280;57767;42.068;24.752;2022-10-31T05:49:38;99302.03;;;19.55;40.49
70343;BME280;57767;42.068;24.752;2022-10-31T05:50:40;99300.97;;;19.56;40.32
70343;BME280;57767;42.068;24.752;2022-10-31T05:51:41;99293.44;;;19.53;40.93
70343;BME280;57767;42.068;24.752;2022-10-31T05:52:43;99305.50;;;19.56;40.51
70343;BME280;57767;42.068;24.752;2022-10-31T05:53:46;99304.19;;;19.58;40.39
70343;BME280;57767;42.068;24.752;2022-10-31T05:54:47;99304.50;;;19.62;40.89
70343;BME280;57767;42.068;24.752;2022-10-31T05:55:49;99297.22;;;19.57;40.34
70343;BME280;57767;42.068;24.752;2022-10-31T05:56:51;99302.63;;;19.62;40.88
70343;BME280;57767;42.068;24.752;2022-10-31T05:57:53;99304.75;;;19.60;40.90
70343;BME280;57767;42.068;24.752;2022-10-31T05:58:55;99306.91;;;19.63;40.60
70343;BME280;57767;42.068;24.752;2022-10-31T05:59:57;99298.84;;;19.58;40.41
70343;BME280;57767;42.068;24.752;2022-10-31T06:00:58;99313.88;;;19.64;40.51
70343;BME280;57767;42.068;24.752;2022-10-31T06:02:00;99308.25;;;19.66;41.00
70343;BME280;57767;42.068;24.752;2022-10-31T06:03:04;99315.78;;;19.69;40.62
70343;BME280;57767;42.068;24.752;2022-10-31T06:04:06;99316.09;;;19.73;40.45
70343;BME280;57767;42.068;24.752;2022-10-31T06:05:08;99311.00;;;19.71;40.57
70343;BME280;57767;42.068;24.752;2022-10-31T06:06:10;99313.69;;;19.71;40.85
70343;BME280;57767;42.068;24.752;2022-10-31T06:07:11;99316.91;;;19.73;40.52
70343;BME280;57767;42.068;24.752;2022-10-31T06:08:13;99323.59;;;19.71;40.87
70343;BME280;57767;42.068;24.752;2022-10-31T06:09:15;99322.28;;;19.73;40.32